createdAt,value
2022-10-06T00:00:02.274Z,114672.91
2022-10-06T00:00:34.943Z,114671.97
2022-10-06T00:01:11.473Z,114675.72
2022-10-06T00:01:43.424Z,114680.94
2022-10-06T00:02:15.370Z,114674.25
2022-10-06T00:02:47.438Z,114675.59
2022-10-06T00:03:23.068Z,114678.81
2022-10-06T00:03:54.956Z,114681.19
2022-10-06T00:04:26.810Z,114670.41
2022-10-06T00:04:58.682Z,114682.97
2022-10-06T00:05:31.204Z,114681.19
2022-10-06T00:06:05.157Z,114678.00
2022-10-06T00:06:37.025Z,114677.03
2022-10-06T00:07:09.050Z,114671.88
2022-10-06T00:07:40.929Z,114672.28
2022-10-06T00:08:12.802Z,114679.28
2022-10-06T00:08:46.896Z,114675.91
2022-10-06T00:09:18.771Z,114679.63
2022-10-06T00:09:50.632Z,114679.63
2022-10-06T00:10:22.547Z,114674.81
2022-10-06T00:10:58.312Z,114678.53
2022-10-06T00:11:30.190Z,114682.16
2022-10-06T00:12:02.350Z,114683.38
2022-10-06T00:12:46.814Z,114674.03
2022-10-06T00:13:18.756Z,114686.06
2022-10-06T00:13:50.844Z,114679.09
2022-10-06T00:14:22.754Z,114685.53
2022-10-06T00:14:54.643Z,114685.13
2022-10-06T00:15:31.589Z,114680.31
2022-10-06T00:16:10.257Z,114690.31
2022-10-06T00:16:42.240Z,114679.09
2022-10-06T00:17:14.123Z,114689.44
2022-10-06T00:17:46.016Z,114692.50
2022-10-06T00:18:17.988Z,114682.47
2022-10-06T00:18:50.144Z,114689.28
2022-10-06T00:19:22.022Z,114690.50
2022-10-06T00:19:53.915Z,114687.94
2022-10-06T00:20:27.316Z,114692.50
2022-10-06T00:21:01.512Z,114702.50
2022-10-06T00:21:34.088Z,114693.81
2022-10-06T00:22:05.990Z,114695.72
2022-10-06T00:22:43.851Z,114697.97
2022-10-06T00:23:16.956Z,114697.88
2022-10-06T00:23:48.819Z,114686.00
2022-10-06T00:24:20.790Z,114687.47
2022-10-06T00:24:52.668Z,114688.94
2022-10-06T00:25:28.343Z,114693.34
2022-10-06T00:26:00.273Z,114692.66
2022-10-06T00:26:32.484Z,114690.41
2022-10-06T00:27:04.477Z,114689.59
2022-10-06T00:27:41.035Z,114693.63
2022-10-06T00:28:14.165Z,114694.03
2022-10-06T00:28:50.242Z,114695.50
2022-10-06T00:29:22.253Z,114702.41
2022-10-06T00:29:54.111Z,114708.44
2022-10-06T00:30:29.670Z,114696.56
2022-10-06T00:31:03.082Z,114697.88
2022-10-06T00:31:35.084Z,114695.22
2022-10-06T00:32:07.715Z,114695.22
2022-10-06T00:32:40.182Z,114702.72
2022-10-06T00:33:16.031Z,114699.25
2022-10-06T00:33:50.182Z,114701.91
2022-10-06T00:34:22.173Z,114694.97
2022-10-06T00:34:54.141Z,114693.63
2022-10-06T00:35:29.751Z,114691.72
2022-10-06T00:36:01.698Z,114694.44
2022-10-06T00:36:33.626Z,114696.28
2022-10-06T00:37:05.522Z,114701.91
2022-10-06T00:37:38.372Z,114706.19
2022-10-06T00:38:13.193Z,114698.59
2022-10-06T00:38:45.144Z,114693.34
2022-10-06T00:39:17.081Z,114684.97
2022-10-06T00:39:49.008Z,114696.06
2022-10-06T00:40:22.628Z,114695.22
2022-10-06T00:40:55.836Z,114695.00
2022-10-06T00:41:27.808Z,114695.78
2022-10-06T00:42:00.158Z,114694.28
2022-10-06T00:42:32.977Z,114698.31
2022-10-06T00:43:06.562Z,114697.75
2022-10-06T00:43:58.173Z,114700.03
2022-10-06T00:44:30.166Z,114697.63
2022-10-06T00:45:06.199Z,114696.69
2022-10-06T00:45:46.623Z,114701.22
2022-10-06T00:46:21.591Z,114700.94
2022-10-06T00:46:54.383Z,114700.44
2022-10-06T00:47:31.059Z,114703.78
2022-10-06T00:48:13.749Z,114708.84
2022-10-06T00:48:51.431Z,114707.66
2022-10-06T00:49:35.746Z,114702.72
2022-10-06T00:50:11.799Z,114703.38
2022-10-06T00:50:44.434Z,114705.91
2022-10-06T00:51:16.724Z,114691.41
2022-10-06T00:52:00.455Z,114705.53
2022-10-06T00:52:32.614Z,114702.47
2022-10-06T00:53:06.223Z,114705.16
2022-10-06T00:53:38.315Z,114706.09
2022-10-06T00:54:10.682Z,114697.69
2022-10-06T00:54:42.952Z,114704.63
2022-10-06T00:55:15.391Z,114700.75
2022-10-06T00:55:47.319Z,114696.91
2022-10-06T00:56:19.278Z,114699.28
2022-10-06T00:56:51.434Z,114702.53
2022-10-06T00:57:23.475Z,114707.06
2022-10-06T00:57:55.894Z,114706.78
2022-10-06T00:58:28.063Z,114703.19
2022-10-06T00:59:00.221Z,114706.00
2022-10-06T00:59:32.578Z,114707.44
2022-10-06T01:00:08.124Z,114703.59
2022-10-06T01:00:43.344Z,114708.66
2022-10-06T01:01:15.401Z,114707.06
2022-10-06T01:02:00.154Z,114710.38
2022-10-06T01:02:47.934Z,114708.53
2022-10-06T01:03:34.750Z,114706.00
2022-10-06T01:04:11.557Z,114706.78
2022-10-06T01:04:48.387Z,114703.19
2022-10-06T01:05:34.606Z,114713.19
2022-10-06T01:06:07.714Z,114706.78
2022-10-06T01:06:50.919Z,114707.97
2022-10-06T01:07:27.828Z,114708.91
2022-10-06T01:07:59.968Z,114708.66
2022-10-06T01:08:33.588Z,114714.25
2022-10-06T01:09:05.599Z,114717.22
2022-10-06T01:09:38.691Z,114711.72
2022-10-06T01:10:10.636Z,114712.69
2022-10-06T01:10:43.151Z,114711.44
2022-10-06T01:11:15.159Z,114715.75
2022-10-06T01:11:51.248Z,114715.47
2022-10-06T01:12:24.866Z,114716.94
2022-10-06T01:12:57.265Z,114705.84
2022-10-06T01:13:30.830Z,114711.84
2022-10-06T01:14:02.701Z,114710.91
2022-10-06T01:14:37.018Z,114717.88
2022-10-06T01:15:09.773Z,114717.22
2022-10-06T01:15:51.962Z,114714.91
2022-10-06T01:16:27.138Z,114711.03
2022-10-06T01:17:23.718Z,114721.72
2022-10-06T01:18:04.826Z,114714.25
2022-10-06T01:18:40.461Z,114720.41
2022-10-06T01:19:33.047Z,114717.88
2022-10-06T01:20:09.231Z,114716.94
2022-10-06T01:20:55.731Z,114718.53
2022-10-06T01:21:36.796Z,114714.16
2022-10-06T01:22:10.395Z,114714.53
2022-10-06T01:22:47.087Z,114703.84
2022-10-06T01:23:19.804Z,114708.38
2022-10-06T01:23:53.028Z,114713.47
2022-10-06T01:24:24.969Z,114712.16
2022-10-06T01:24:57.625Z,114712.50
2022-10-06T01:25:29.704Z,114704.66
2022-10-06T01:26:07.394Z,114711.84
2022-10-06T01:26:45.485Z,114710.00
2022-10-06T01:27:18.777Z,114705.19
2022-10-06T01:27:56.182Z,114716.53
2022-10-06T01:28:29.019Z,114703.72
2022-10-06T01:29:01.371Z,114706.25
2022-10-06T01:29:34.241Z,114708.25
2022-10-06T01:30:09.938Z,114705.06
2022-10-06T01:30:46.349Z,114709.19
2022-10-06T01:31:18.486Z,114703.06
2022-10-06T01:31:50.404Z,114700.81
2022-10-06T01:32:24.123Z,114710.38
2022-10-06T01:32:56.523Z,114698.78
2022-10-06T01:33:29.953Z,114705.31
2022-10-06T01:34:01.831Z,114701.59
2022-10-06T01:34:34.004Z,114704.41
2022-10-06T01:35:08.523Z,114702.53
2022-10-06T01:35:40.529Z,114709.47
2022-10-06T01:36:12.406Z,114708.41
2022-10-06T01:36:44.349Z,114697.03
2022-10-06T01:37:16.641Z,114703.19
2022-10-06T01:37:48.575Z,114700.38
2022-10-06T01:38:22.002Z,114702.28
2022-10-06T01:38:53.922Z,114698.50
2022-10-06T01:39:25.782Z,114700.38
2022-10-06T01:39:57.707Z,114695.84
2022-10-06T01:40:29.581Z,114702.38
2022-10-06T01:41:01.497Z,114701.44
2022-10-06T01:41:34.405Z,114708.94
2022-10-06T01:42:06.446Z,114696.38
2022-10-06T01:42:38.491Z,114702.63
2022-10-06T01:43:10.770Z,114693.72
2022-10-06T01:43:42.683Z,114702.78
2022-10-06T01:44:15.129Z,114705.56
2022-10-06T01:44:47.038Z,114698.66
2022-10-06T01:45:18.937Z,114696.78
2022-10-06T01:45:56.100Z,114699.13
2022-10-06T01:46:30.217Z,114696.72
2022-10-06T01:47:06.116Z,114700.19
2022-10-06T01:47:38.336Z,114699.25
2022-10-06T01:48:10.207Z,114702.84
2022-10-06T01:48:42.123Z,114691.22
2022-10-06T01:49:13.988Z,114697.66
2022-10-06T01:49:45.862Z,114697.25
2022-10-06T01:50:17.805Z,114695.38
2022-10-06T01:50:50.260Z,114698.84
2022-10-06T01:51:22.151Z,114694.06
2022-10-06T01:51:54.332Z,114691.53
2022-10-06T01:52:26.865Z,114695.38
2022-10-06T01:52:58.763Z,114701.13
2022-10-06T01:53:30.635Z,114689.91
2022-10-06T01:54:02.826Z,114689.91
2022-10-06T01:54:34.710Z,114682.41
2022-10-06T01:55:07.489Z,114698.06
2022-10-06T01:55:39.369Z,114694.19
2022-10-06T01:56:11.590Z,114698.59
2022-10-06T01:56:43.543Z,114697.38
2022-10-06T01:57:15.410Z,114697.38
2022-10-06T01:57:47.333Z,114690.84
2022-10-06T01:58:19.213Z,114699.91
2022-10-06T01:58:51.107Z,114690.16
2022-10-06T01:59:23.135Z,114693.09
2022-10-06T01:59:55.202Z,114704.44
2022-10-06T02:00:27.106Z,114698.31
2022-10-06T02:01:04.480Z,114699.78
2022-10-06T02:01:36.650Z,114700.19
2022-10-06T02:02:08.549Z,114704.31
2022-10-06T02:02:41.496Z,114694.84
2022-10-06T02:03:13.468Z,114697.91
2022-10-06T02:03:45.381Z,114699.38
2022-10-06T02:04:17.667Z,114705.28
2022-10-06T02:04:49.667Z,114697.94
2022-10-06T02:05:21.579Z,114704.44
2022-10-06T02:05:57.295Z,114707.91
2022-10-06T02:06:29.679Z,114705.91
2022-10-06T02:07:01.645Z,114700.81
2022-10-06T02:07:35.936Z,114696.28
2022-10-06T02:08:09.620Z,114691.22
2022-10-06T02:08:41.564Z,114692.38
2022-10-06T02:09:14.107Z,114687.28
2022-10-06T02:09:45.987Z,114693.19
2022-10-06T02:10:17.941Z,114691.44
2022-10-06T02:10:49.883Z,114689.03
2022-10-06T02:11:21.829Z,114692.63
2022-10-06T02:11:53.695Z,114696.91
2022-10-06T02:12:25.657Z,114693.84
2022-10-06T02:12:57.781Z,114692.13
2022-10-06T02:13:30.425Z,114685.81
2022-10-06T02:14:02.446Z,114697.97
2022-10-06T02:14:34.817Z,114704.53
2022-10-06T02:15:10.604Z,114693.44
2022-10-06T02:15:42.656Z,114691.56
2022-10-06T02:16:15.169Z,114695.72
2022-10-06T02:16:47.063Z,114703.19
2022-10-06T02:17:18.950Z,114701.88
2022-10-06T02:17:50.854Z,114709.59
2022-10-06T02:18:22.745Z,114698.91
2022-10-06T02:18:54.887Z,114702.50
2022-10-06T02:19:26.775Z,114705.88
2022-10-06T02:19:58.843Z,114700.91
2022-10-06T02:20:30.879Z,114699.72
2022-10-06T02:21:03.582Z,114706.09
2022-10-06T02:21:35.806Z,114702.22
2022-10-06T02:22:07.723Z,114698.63
2022-10-06T02:22:40.822Z,114710.06
2022-10-06T02:23:12.876Z,114707.66
2022-10-06T02:23:45.653Z,114704.91
2022-10-06T02:24:17.541Z,114707.44
2022-10-06T02:24:49.442Z,114709.84
2022-10-06T02:25:21.346Z,114702.91
2022-10-06T02:26:07.529Z,114714.94
2022-10-06T02:26:39.648Z,114710.22
2022-10-06T02:27:11.569Z,114708.47
2022-10-06T02:27:44.028Z,114704.22
2022-10-06T02:28:16.984Z,114707.66
2022-10-06T02:28:52.023Z,114708.59
2022-10-06T02:29:24.067Z,114711.41
2022-10-06T02:29:56.076Z,114715.00
2022-10-06T02:30:27.986Z,114704.84
2022-10-06T02:31:08.536Z,114715.16
2022-10-06T02:31:40.495Z,114722.84
2022-10-06T02:32:12.382Z,114714.06
2022-10-06T02:32:44.328Z,114717.94
2022-10-06T02:33:17.061Z,114719.78
2022-10-06T02:33:49.077Z,114716.03
2022-10-06T02:34:21.047Z,114706.69
2022-10-06T02:34:53.075Z,114712.41
2022-10-06T02:35:25.554Z,114720.84
2022-10-06T02:35:58.460Z,114722.69
2022-10-06T02:36:30.312Z,114710.81
2022-10-06T02:37:02.190Z,114715.25
2022-10-06T02:37:34.669Z,114713.34
2022-10-06T02:38:06.534Z,114717.38
2022-10-06T02:38:39.394Z,114719.53
2022-10-06T02:39:11.256Z,114714.84
2022-10-06T02:39:43.299Z,114714.44
2022-10-06T02:40:16.434Z,114721.09
2022-10-06T02:40:48.601Z,114725.53
2022-10-06T02:41:20.569Z,114722.06
2022-10-06T02:41:52.477Z,114724.19
2022-10-06T02:42:24.640Z,114716.47
2022-10-06T02:42:56.585Z,114722.09
2022-10-06T02:43:31.911Z,114724.34
2022-10-06T02:44:03.929Z,114715.66
2022-10-06T02:44:36.103Z,114727.91
2022-10-06T02:45:08.948Z,114723.41
2022-10-06T02:45:41.893Z,114731.28
2022-10-06T02:46:15.223Z,114729.16
2022-10-06T02:46:48.541Z,114733.53
2022-10-06T02:47:22.292Z,114730.34
2022-10-06T02:47:54.988Z,114726.63
2022-10-06T02:48:29.379Z,114731.69
2022-10-06T02:49:01.512Z,114736.06
2022-10-06T02:49:33.387Z,114725.53
2022-10-06T02:50:08.310Z,114721.75
2022-10-06T02:50:40.224Z,114733.78
2022-10-06T02:51:18.497Z,114737.66
2022-10-06T02:51:50.410Z,114740.72
2022-10-06T02:52:23.520Z,114738.84
2022-10-06T02:52:55.433Z,114734.31
2022-10-06T02:53:28.501Z,114737.38
2022-10-06T02:54:00.562Z,114733.47
2022-10-06T02:54:35.429Z,114732.94
2022-10-06T02:55:08.913Z,114743.59
2022-10-06T02:55:41.138Z,114738.53
2022-10-06T02:56:17.387Z,114736.94
2022-10-06T02:56:50.264Z,114745.75
2022-10-06T02:57:22.151Z,114738.81
2022-10-06T02:57:55.207Z,114745.66
2022-10-06T02:58:31.326Z,114747.88
2022-10-06T02:59:03.586Z,114739.75
2022-10-06T02:59:38.706Z,114739.47
2022-10-06T03:00:11.853Z,114736.41
2022-10-06T03:00:43.756Z,114738.94
2022-10-06T03:01:19.743Z,114744.34
2022-10-06T03:01:52.710Z,114746.09
2022-10-06T03:02:24.912Z,114742.72
2022-10-06T03:02:56.941Z,114737.78
2022-10-06T03:03:29.525Z,114734.31
2022-10-06T03:04:01.552Z,114737.63
2022-10-06T03:04:33.423Z,114748.47
2022-10-06T03:05:05.586Z,114740.31
2022-10-06T03:05:37.477Z,114740.50
2022-10-06T03:06:25.238Z,114737.31
2022-10-06T03:06:57.683Z,114740.97
2022-10-06T03:07:29.765Z,114742.72
2022-10-06T03:08:01.634Z,114751.00
2022-10-06T03:08:33.853Z,114742.16
2022-10-06T03:09:08.389Z,114744.44
2022-10-06T03:09:40.317Z,114743.88
2022-10-06T03:10:12.214Z,114739.75
2022-10-06T03:10:44.116Z,114745.94
2022-10-06T03:11:19.324Z,114740.31
2022-10-06T03:11:51.272Z,114742.84
2022-10-06T03:12:23.184Z,114754.28
2022-10-06T03:12:55.707Z,114745.00
2022-10-06T03:13:31.491Z,114738.66
2022-10-06T03:14:04.429Z,114737.31
2022-10-06T03:14:36.333Z,114745.47
2022-10-06T03:15:08.634Z,114753.06
2022-10-06T03:15:40.500Z,114740.41
2022-10-06T03:16:18.631Z,114744.53
2022-10-06T03:16:51.978Z,114730.91
2022-10-06T03:17:23.927Z,114739.19
2022-10-06T03:17:55.922Z,114747.91
2022-10-06T03:18:28.296Z,114741.06
2022-10-06T03:19:01.766Z,114749.69
2022-10-06T03:19:33.641Z,114743.72
2022-10-06T03:20:06.269Z,114743.16
2022-10-06T03:20:38.137Z,114742.78
2022-10-06T03:21:10.013Z,114753.84
2022-10-06T03:21:44.160Z,114746.25
2022-10-06T03:22:16.050Z,114753.84
2022-10-06T03:22:47.956Z,114747.00
2022-10-06T03:23:19.893Z,114753.28
2022-10-06T03:23:53.707Z,114757.03
2022-10-06T03:24:25.665Z,114754.09
2022-10-06T03:24:57.846Z,114752.91
2022-10-06T03:25:29.759Z,114753.84
2022-10-06T03:26:01.803Z,114758.34
2022-10-06T03:26:37.696Z,114749.53
2022-10-06T03:27:09.731Z,114761.81
2022-10-06T03:27:41.624Z,114763.28
2022-10-06T03:28:13.522Z,114763.03
2022-10-06T03:28:46.044Z,114754.41
2022-10-06T03:29:18.078Z,114753.59
2022-10-06T03:29:49.958Z,114764.16
2022-10-06T03:30:21.868Z,114752.19
2022-10-06T03:30:54.917Z,114751.63
2022-10-06T03:31:27.733Z,114756.19
2022-10-06T03:31:59.788Z,114758.16
2022-10-06T03:32:31.636Z,114759.78
2022-10-06T03:33:03.539Z,114763.53
2022-10-06T03:33:35.838Z,114760.97
2022-10-06T03:34:08.061Z,114753.78
2022-10-06T03:34:39.925Z,114758.53
2022-10-06T03:35:11.807Z,114757.72
2022-10-06T03:35:43.934Z,114759.56
2022-10-06T03:36:19.834Z,114762.66
2022-10-06T03:36:51.832Z,114756.31
2022-10-06T03:37:23.846Z,114758.22
2022-10-06T03:37:56.031Z,114759.31
2022-10-06T03:38:28.357Z,114757.44
2022-10-06T03:39:01.831Z,114765.69
2022-10-06T03:39:34.305Z,114763.28
2022-10-06T03:40:06.873Z,114761.94
2022-10-06T03:40:38.760Z,114767.72
2022-10-06T03:41:27.818Z,114767.63
2022-10-06T03:41:59.713Z,114761.75
2022-10-06T03:42:32.278Z,114769.44
2022-10-06T03:43:04.491Z,114766.81
2022-10-06T03:43:37.492Z,114764.56
2022-10-06T03:44:09.398Z,114766.69
2022-10-06T03:44:41.480Z,114771.66
2022-10-06T03:45:13.399Z,114774.84
2022-10-06T03:45:57.157Z,114778.78
2022-10-06T03:46:32.592Z,114773.16
2022-10-06T03:47:04.624Z,114775.41
2022-10-06T03:47:36.640Z,114772.22
2022-10-06T03:48:08.563Z,114782.63
2022-10-06T03:48:40.504Z,114782.91
2022-10-06T03:49:12.391Z,114784.78
2022-10-06T03:49:44.345Z,114784.41
2022-10-06T03:50:17.127Z,114782.91
2022-10-06T03:50:57.213Z,114767.81
2022-10-06T03:51:38.929Z,114783.56
2022-10-06T03:52:10.849Z,114780.47
2022-10-06T03:52:42.713Z,114778.41
2022-10-06T03:53:14.593Z,114782.84
2022-10-06T03:53:50.224Z,114786.56
2022-10-06T03:54:22.167Z,114780.31
2022-10-06T03:54:54.538Z,114777.84
2022-10-06T03:55:26.464Z,114768.81
2022-10-06T03:56:16.514Z,114782.66
2022-10-06T03:56:48.435Z,114779.56
2022-10-06T03:57:20.352Z,114780.13
2022-10-06T03:57:52.223Z,114786.13
2022-10-06T03:58:24.138Z,114782.38
2022-10-06T03:59:02.722Z,114791.28
2022-10-06T03:59:34.844Z,114787.50
2022-10-06T04:00:07.435Z,114793.53
2022-10-06T04:00:39.403Z,114788.19
2022-10-06T04:01:26.190Z,114790.50
2022-10-06T04:01:58.482Z,114792.66
2022-10-06T04:02:30.406Z,114794.16
2022-10-06T04:03:02.406Z,114804.84
2022-10-06T04:03:34.900Z,114798.44
2022-10-06T04:04:07.708Z,114804.84
2022-10-06T04:04:39.593Z,114802.94
2022-10-06T04:05:11.807Z,114798.56
2022-10-06T04:06:00.351Z,114806.03
2022-10-06T04:06:37.040Z,114806.72
2022-10-06T04:07:09.064Z,114808.56
2022-10-06T04:07:40.971Z,114803.50
2022-10-06T04:08:14.751Z,114800.88
2022-10-06T04:08:49.350Z,114806.72
2022-10-06T04:09:21.251Z,114808.56
2022-10-06T04:09:53.231Z,114804.28
2022-10-06T04:10:25.113Z,114799.31
2022-10-06T04:11:11.246Z,114799.22
2022-10-06T04:11:44.947Z,114807.06
2022-10-06T04:12:16.835Z,114806.66
2022-10-06T04:12:48.715Z,114800.31
2022-10-06T04:13:22.346Z,114807.69
2022-10-06T04:14:03.578Z,114814.25
2022-10-06T04:14:35.663Z,114805.97
2022-10-06T04:15:08.174Z,114810.69
2022-10-06T04:15:40.055Z,114813.31
2022-10-06T04:16:21.201Z,114822.00
2022-10-06T04:16:53.359Z,114812.09
2022-10-06T04:17:25.245Z,114813.69
2022-10-06T04:17:57.114Z,114808.34
2022-10-06T04:18:29.177Z,114820.25
2022-10-06T04:19:04.514Z,114820.13
2022-10-06T04:19:36.474Z,114827.16
2022-10-06T04:20:08.641Z,114823.25
2022-10-06T04:20:41.066Z,114823.66
2022-10-06T04:21:13.612Z,114820.72
2022-10-06T04:21:47.887Z,114821.75
2022-10-06T04:22:19.905Z,114816.91
2022-10-06T04:22:51.852Z,114826.28
2022-10-06T04:23:23.848Z,114818.75
2022-10-06T04:24:00.287Z,114825.31
2022-10-06T04:24:32.266Z,114819.16
2022-10-06T04:25:04.418Z,114809.41
2022-10-06T04:25:36.388Z,114826.44
2022-10-06T04:26:13.681Z,114823.25
2022-10-06T04:26:48.886Z,114815.03
2022-10-06T04:27:29.611Z,114813.78
2022-10-06T04:28:01.718Z,114820.09
2022-10-06T04:28:34.623Z,114820.66
2022-10-06T04:29:07.332Z,114818.75
2022-10-06T04:29:39.224Z,114810.91
2022-10-06T04:30:12.202Z,114821.97
2022-10-06T04:30:44.063Z,114820.19
2022-10-06T04:31:25.878Z,114812.31
2022-10-06T04:31:57.814Z,114816.13
2022-10-06T04:32:29.868Z,114817.84
2022-10-06T04:33:01.738Z,114816.81
2022-10-06T04:33:34.273Z,114815.19
2022-10-06T04:34:07.401Z,114819.22
2022-10-06T04:34:39.332Z,114817.09
2022-10-06T04:35:11.236Z,114811.53
2022-10-06T04:35:43.188Z,114810.06
2022-10-06T04:36:22.907Z,114812.22
2022-10-06T04:36:54.860Z,114803.38
2022-10-06T04:37:28.371Z,114810.34
2022-10-06T04:38:00.246Z,114817.28
2022-10-06T04:38:36.700Z,114816.53
2022-10-06T04:39:10.838Z,114812.59
2022-10-06T04:39:42.835Z,114820.94
2022-10-06T04:40:14.841Z,114813.34
2022-10-06T04:40:46.710Z,114821.19
2022-10-06T04:41:20.466Z,114818.41
2022-10-06T04:41:52.438Z,114825.31
2022-10-06T04:42:24.647Z,114820.94
2022-10-06T04:42:57.470Z,114822.16
2022-10-06T04:43:29.491Z,114823.34
2022-10-06T04:44:03.491Z,114821.38
2022-10-06T04:44:35.424Z,114827.78
2022-10-06T04:45:08.147Z,114824.59
2022-10-06T04:45:40.132Z,114821.75
2022-10-06T05:36:28.910Z,114879.63
2022-10-06T05:37:01.125Z,114873.81
2022-10-06T05:37:33.194Z,114875.69
2022-10-06T05:38:05.313Z,114874.75
2022-10-06T05:38:37.932Z,114877.53
2022-10-06T05:39:09.955Z,114885.25
2022-10-06T05:39:41.953Z,114880.63
2022-10-06T05:40:14.025Z,114884.13
2022-10-06T05:40:46.088Z,114879.88
2022-10-06T05:41:20.360Z,114878.00
2022-10-06T05:41:52.752Z,114877.56
2022-10-06T05:42:28.816Z,114878.13
2022-10-06T05:43:02.074Z,114884.31
2022-10-06T05:43:35.556Z,114891.84
2022-10-06T05:44:08.848Z,114881.97
2022-10-06T05:44:40.907Z,114885.25
2022-10-06T05:45:13.114Z,114886.41
2022-10-06T05:45:56.851Z,114893.72
2022-10-06T05:46:31.691Z,114892.97
2022-10-06T05:47:03.679Z,114891.66
2022-10-06T05:47:35.881Z,114899.34
2022-10-06T05:48:09.173Z,114898.78
2022-10-06T05:48:41.360Z,114895.13
2022-10-06T05:49:13.638Z,114896.97
2022-10-06T05:49:45.629Z,114904.56
2022-10-06T05:50:19.514Z,114902.16
2022-10-06T05:51:08.083Z,114906.44
2022-10-06T05:51:40.683Z,114901.19
2022-10-06T05:52:12.613Z,114907.19
2022-10-06T05:52:44.567Z,114901.97
2022-10-06T05:53:16.610Z,114901.97
2022-10-06T05:53:48.938Z,114905.81
2022-10-06T05:54:21.032Z,114911.91
2022-10-06T05:54:53.177Z,114910.13
2022-10-06T05:55:26.507Z,114912.19
2022-10-06T05:56:13.200Z,114899.63
2022-10-06T05:56:45.498Z,114910.69
2022-10-06T05:57:17.567Z,114917.53
2022-10-06T05:57:49.768Z,114918.84
2022-10-06T05:58:21.816Z,114910.03
2022-10-06T05:58:56.039Z,114920.63
2022-10-06T05:59:28.005Z,114908.09
2022-10-06T06:00:00.086Z,114921.72
2022-10-06T06:00:32.128Z,114919.50
2022-10-06T06:01:15.483Z,114924.75
2022-10-06T06:01:47.527Z,114928.03
2022-10-06T06:02:19.721Z,114928.31
2022-10-06T06:02:51.947Z,114923.25
2022-10-06T06:03:24.085Z,114930.84
2022-10-06T06:04:03.027Z,114932.91
2022-10-06T06:04:35.223Z,114931.69
2022-10-06T06:05:07.421Z,114933.19
2022-10-06T06:05:43.264Z,114939.75
2022-10-06T06:06:35.155Z,114939.38
2022-10-06T06:07:07.244Z,114946.34
2022-10-06T06:07:39.325Z,114938.06
2022-10-06T06:08:11.956Z,114941.28
2022-10-06T06:08:44.352Z,114941.63
2022-10-06T06:09:21.828Z,114948.38
2022-10-06T06:09:53.942Z,114945.28
2022-10-06T06:10:26.160Z,114949.88
2022-10-06T06:11:07.785Z,114948.94
2022-10-06T06:11:49.143Z,114941.91
2022-10-06T06:12:21.165Z,114945.38
2022-10-06T06:12:53.122Z,114950.34
2022-10-06T06:13:25.230Z,114948.47
2022-10-06T06:14:03.656Z,114946.50
2022-10-06T06:14:54.222Z,114936.56
2022-10-06T06:15:44.574Z,114950.81
2022-10-06T06:16:16.680Z,114948.28
2022-10-06T06:16:48.815Z,114954.00
2022-10-06T06:17:20.925Z,114956.84
2022-10-06T06:17:52.922Z,114953.06
2022-10-06T06:18:24.941Z,114961.13
2022-10-06T06:18:57.767Z,114948.16
2022-10-06T06:19:29.916Z,114959.56
2022-10-06T06:20:02.022Z,114959.63
2022-10-06T06:20:34.121Z,114956.34
2022-10-06T06:21:09.626Z,114961.31
2022-10-06T06:21:41.813Z,114955.22
2022-10-06T06:22:13.882Z,114958.31
2022-10-06T06:22:45.925Z,114962.72
2022-10-06T06:23:17.963Z,114965.44
2022-10-06T06:23:50.504Z,114967.72
2022-10-06T06:24:22.646Z,114969.94
2022-10-06T06:24:54.787Z,114970.81
2022-10-06T06:25:26.880Z,114968.28
2022-10-06T06:26:04.140Z,114978.97
2022-10-06T06:26:37.948Z,114980.81
2022-10-06T06:27:10.052Z,114962.66
2022-10-06T06:27:42.201Z,114980.09
2022-10-06T06:28:14.271Z,114983.34
2022-10-06T06:28:47.797Z,114975.75
2022-10-06T06:29:19.918Z,114975.09
2022-10-06T06:29:51.906Z,114983.34
2022-10-06T06:30:24.448Z,114978.03
2022-10-06T06:31:07.196Z,114978.03
2022-10-06T06:31:43.875Z,114984.69
2022-10-06T06:32:15.936Z,114976.13
2022-10-06T06:32:47.939Z,114983.66
2022-10-06T06:33:19.839Z,114983.47
2022-10-06T06:33:55.098Z,114985.75
2022-10-06T06:34:27.469Z,114986.00
2022-10-06T06:34:59.547Z,114987.03
2022-10-06T06:35:31.639Z,114981.69
2022-10-06T06:36:28.071Z,114978.88
2022-10-06T06:37:06.766Z,114980.00
2022-10-06T06:37:40.551Z,114977.28
2022-10-06T06:38:12.736Z,114991.63
2022-10-06T06:38:52.099Z,114979.91
2022-10-06T06:39:25.532Z,114994.47
2022-10-06T06:39:57.668Z,114988.72
2022-10-06T06:40:29.724Z,114991.94
2022-10-06T06:41:01.713Z,114990.59
2022-10-06T06:41:39.941Z,114989.28
2022-10-06T06:42:11.932Z,114987.41
2022-10-06T06:42:43.957Z,114991.72
2022-10-06T06:43:16.027Z,114992.28
2022-10-06T06:43:49.938Z,114989.28
2022-10-06T06:44:22.306Z,114990.78
2022-10-06T06:44:54.794Z,114985.72
2022-10-06T06:45:26.850Z,114988.25
2022-10-06T06:46:05.326Z,114989.75
2022-10-06T06:46:38.737Z,114993.78
2022-10-06T06:47:10.804Z,114990.78
2022-10-06T06:47:42.837Z,114995.19
2022-10-06T06:48:16.498Z,114993.88
2022-10-06T06:48:50.028Z,114998.09
2022-10-06T06:49:22.663Z,114994.50
2022-10-06T06:49:55.129Z,114997.31
2022-10-06T06:50:27.170Z,114998.81
2022-10-06T06:50:59.226Z,115002.94
2022-10-06T06:51:37.871Z,115007.81
2022-10-06T06:52:10.075Z,115009.19
2022-10-06T06:52:43.962Z,115011.34
2022-10-06T06:53:16.498Z,115018.47
2022-10-06T06:53:49.095Z,115020.44
2022-10-06T06:54:21.246Z,115026.53
2022-10-06T06:54:53.265Z,115028.28
2022-10-06T06:55:25.364Z,115029.09
2022-10-06T06:55:58.138Z,115028.97
2022-10-06T06:56:38.893Z,115038.63
2022-10-06T06:57:10.955Z,115039.72
2022-10-06T06:57:42.942Z,115043.38
2022-10-06T06:58:14.986Z,115040.72
2022-10-06T06:58:48.102Z,115043.97
2022-10-06T06:59:20.560Z,115038.88
2022-10-06T06:59:52.624Z,115043.31
2022-10-06T07:00:24.944Z,115038.78
2022-10-06T07:01:13.913Z,115051.69
2022-10-06T07:01:47.596Z,115049.00
2022-10-06T07:02:19.751Z,115054.50
2022-10-06T07:02:56.190Z,115052.50
2022-10-06T07:03:52.574Z,115057.31
2022-10-06T07:04:22.244Z,115054.25
2022-10-06T07:04:54.368Z,115054.41
2022-10-06T07:05:27.292Z,115056.97
2022-10-06T07:06:12.258Z,115065.00
2022-10-06T07:06:57.212Z,115063.81
2022-10-06T07:07:29.459Z,115065.13
2022-10-06T07:08:01.555Z,115074.78
2022-10-06T07:08:33.727Z,115064.06
2022-10-06T07:09:06.195Z,115070.88
2022-10-06T07:09:41.291Z,115069.69
2022-10-06T07:10:13.450Z,115064.19
2022-10-06T07:10:46.964Z,115071.53
2022-10-06T07:11:31.386Z,115079.13
2022-10-06T07:12:03.629Z,115076.88
2022-10-06T07:12:35.656Z,115085.97
2022-10-06T07:13:07.848Z,115081.66
2022-10-06T07:13:40.742Z,115083.78
2022-10-06T07:14:12.961Z,115089.03
2022-10-06T07:15:03.536Z,115083.63
2022-10-06T07:15:54.318Z,115092.31